Time;durP1;ratioP1;P1;durP2;ratioP2;P2;SDS_P1;SDS_P2;PMS_P1;PMS_P2;Temp;Humidity;BMP_temperature;BMP_pressure;BME280_temperature;BME280_humidity;BME280_pressure;Samples;Min_cycle;Max_cycle;Signal;HPM_P1;HPM_P2
2022/08/03 00:01:26;;;;;;;6.78;3.47;;;23.30;99.90;;;;;;5010573;28;20219;-69
2022/08/03 00:03:52;;;;;;;5.68;2.90;;;23.40;99.90;;;;;;4993273;28;20539;-70
2022/08/03 00:06:18;;;;;;;6.18;3.28;;;23.40;99.90;;;;;;5010918;28;20201;-70
2022/08/03 00:08:43;;;;;;;4.32;3.15;;;23.40;99.90;;;;;;5010283;28;20204;-70
2022/08/03 00:11:09;;;;;;;5.07;3.33;;;23.50;99.90;;;;;;5011293;28;20196;-69
2022/08/03 00:13:35;;;;;;;3.55;2.90;;;23.50;99.90;;;;;;5010429;28;20220;-69
2022/08/03 00:16:00;;;;;;;5.18;3.50;;;23.40;99.90;;;;;;5010516;28;20682;-68
2022/08/03 00:18:26;;;;;;;4.35;3.08;;;23.40;99.90;;;;;;5014060;28;20815;-69
2022/08/03 00:20:51;;;;;;;4.88;2.92;;;23.40;99.90;;;;;;4999349;28;20332;-69
2022/08/03 00:23:17;;;;;;;4.93;3.08;;;23.40;99.90;;;;;;4999867;28;20291;-69
2022/08/03 00:25:42;;;;;;;3.60;3.08;;;23.30;99.90;;;;;;5021093;28;20238;-70
2022/08/03 00:28:08;;;;;;;5.05;3.22;;;23.30;99.90;;;;;;5016930;28;20211;-70
2022/08/03 00:30:34;;;;;;;4.40;3.53;;;23.30;99.90;;;;;;4998061;28;20696;-70
2022/08/03 00:33:01;;;;;;;6.68;3.60;;;23.20;99.90;;;;;;5017998;28;20200;-69
2022/08/03 00:35:27;;;;;;;5.50;3.40;;;23.20;99.90;;;;;;5000630;28;20200;-70
2022/08/03 00:37:53;;;;;;;4.03;3.05;;;23.20;99.90;;;;;;5018556;28;20648;-70
2022/08/03 00:40:19;;;;;;;3.97;2.90;;;23.20;99.90;;;;;;5016834;28;20221;-70
2022/08/03 00:42:49;;;;;;;5.47;3.28;;;23.20;99.90;;;;;;5017117;28;20530;-71
2022/08/03 00:45:19;;;;;;;6.00;3.60;;;23.20;99.90;;;;;;5017547;28;20203;-70
2022/08/03 00:47:45;;;;;;;6.38;3.45;;;23.20;99.90;;;;;;5017378;28;20208;-70
2022/08/03 00:50:11;;;;;;;5.78;3.38;;;23.20;99.90;;;;;;5017298;28;20510;-70
2022/08/03 00:52:36;;;;;;;6.93;3.63;;;23.10;99.90;;;;;;5016431;28;20259;-70
2022/08/03 00:55:03;;;;;;;3.53;3.22;;;23.20;99.90;;;;;;4998994;28;20209;-70
2022/08/03 00:57:32;;;;;;;6.28;3.42;;;23.10;99.90;;;;;;5016820;28;20204;-70
2022/08/03 01:00:01;;;;;;;5.78;3.33;;;23.00;99.90;;;;;;5015498;28;20725;-68
2022/08/03 01:02:28;;;;;;;4.93;3.38;;;22.90;99.90;;;;;;5007491;28;20239;-68
2022/08/03 01:04:54;;;;;;;4.13;3.13;;;22.90;99.90;;;;;;5017245;28;20686;-69
2022/08/03 01:07:31;;;;;;;5.10;3.00;;;23.00;99.90;;;;;;5016638;28;20208;-68
2022/08/03 01:10:09;;;;;;;8.73;3.00;;;23.00;99.90;;;;;;5003323;28;20205;-69
2022/08/03 01:12:56;;;;;;;6.85;3.28;;;23.00;99.90;;;;;;5016554;28;20231;-68
2022/08/03 01:15:39;;;;;;;3.40;2.67;;;23.00;99.90;;;;;;5015464;28;20263;-69
2022/08/03 01:18:13;;;;;;;5.22;3.08;;;22.90;99.90;;;;;;5014178;28;20707;-68
2022/08/03 01:20:44;;;;;;;3.88;2.83;;;22.90;99.90;;;;;;5016131;28;20217;-69
2022/08/03 01:23:22;;;;;;;6.70;3.28;;;22.80;99.90;;;;;;5014379;28;20244;-68
2022/08/03 01:26:33;;;;;;;3.88;3.00;;;22.80;99.90;;;;;;5016527;28;20209;-69
2022/08/03 01:29:21;;;;;;;6.18;3.53;;;22.70;99.90;;;;;;5013655;28;20201;-68
2022/08/03 01:32:01;;;;;;;3.60;3.03;;;22.80;99.90;;;;;;5011829;28;20548;-68
2022/08/03 01:34:33;;;;;;;5.13;3.10;;;22.80;99.90;;;;;;5010490;28;20689;-68
2022/08/03 01:37:01;;;;;;;4.43;3.20;;;22.80;99.90;;;;;;5013419;28;20208;-69
2022/08/03 01:39:30;;;;;;;4.72;3.03;;;22.80;99.90;;;;;;4995237;28;20216;-68
2022/08/03 01:41:59;;;;;;;5.57;3.15;;;22.80;99.90;;;;;;5013189;28;20288;-69
2022/08/03 01:44:30;;;;;;;6.10;3.40;;;22.80;99.90;;;;;;5012728;28;20188;-69
2022/08/03 01:47:00;;;;;;;5.55;3.55;;;22.70;99.90;;;;;;5016450;28;20227;-69
2022/08/03 01:49:28;;;;;;;6.18;3.38;;;22.80;99.90;;;;;;4992658;28;20569;-71
2022/08/03 01:51:55;;;;;;;4.47;3.13;;;22.80;99.90;;;;;;5009263;28;20213;-69
2022/08/03 01:54:23;;;;;;;5.80;3.60;;;22.80;99.90;;;;;;5003881;28;20629;-69
2022/08/03 01:56:51;;;;;;;7.65;3.63;;;22.70;99.90;;;;;;5013261;28;20697;-69
2022/08/03 01:59:19;;;;;;;6.25;3.47;;;22.70;99.90;;;;;;5018317;28;20172;-70
2022/08/03 02:01:46;;;;;;;4.80;3.20;;;22.70;99.90;;;;;;5013037;28;20189;-69
2022/08/03 02:04:16;;;;;;;4.47;3.42;;;22.70;99.90;;;;;;5009363;28;20197;-68
2022/08/03 02:06:43;;;;;;;5.18;3.63;;;22.70;99.90;;;;;;5012848;28;20207;-69
2022/08/03 02:09:10;;;;;;;4.25;3.15;;;22.70;99.90;;;;;;5013708;28;20568;-69
2022/08/03 02:11:37;;;;;;;5.25;3.15;;;22.70;99.90;;;;;;5003854;28;20200;-70
2022/08/03 02:14:04;;;;;;;4.43;2.92;;;22.60;99.90;;;;;;5015520;28;20204;-68
2022/08/03 02:16:32;;;;;;;4.25;2.90;;;22.70;99.90;;;;;;5012870;28;20670;-69
2022/08/03 02:19:00;;;;;;;3.45;3.03;;;22.70;99.90;;;;;;5012526;28;20205;-69
2022/08/03 02:21:28;;;;;;;6.35;3.42;;;22.70;99.90;;;;;;4994931;28;20256;-69
2022/08/03 02:23:54;;;;;;;6.18;3.30;;;22.70;99.90;;;;;;5012854;28;20197;-69
2022/08/03 02:26:23;;;;;;;4.35;2.60;;;22.70;99.90;;;;;;4992372;28;20635;-69
2022/08/03 02:28:52;;;;;;;4.88;2.97;;;22.70;99.90;;;;;;4988332;28;20166;-72
2022/08/03 02:31:22;;;;;;;4.75;2.92;;;22.80;99.90;;;;;;5012680;28;20201;-69
2022/08/03 02:33:51;;;;;;;5.82;3.17;;;22.80;99.90;;;;;;5010856;28;20204;-69
2022/08/03 02:36:24;;;;;;;4.13;2.85;;;22.80;99.90;;;;;;5025330;28;20284;-69
2022/08/03 02:38:53;;;;;;;4.68;2.67;;;22.90;99.90;;;;;;5022879;28;20205;-69
2022/08/03 02:41:23;;;;;;;5.57;3.10;;;22.80;99.90;;;;;;5012781;28;20221;-69
2022/08/03 02:43:53;;;;;;;5.05;2.63;;;22.70;99.90;;;;;;5009970;28;20657;-69
2022/08/03 02:46:21;;;;;;;7.53;2.83;;;22.70;99.90;;;;;;5006442;28;20620;-69
2022/08/03 02:48:48;;;;;;;8.00;3.33;;;22.70;99.90;;;;;;5008042;28;20201;-69
2022/08/03 02:51:17;;;;;;;5.07;2.78;;;22.60;99.90;;;;;;4992423;28;20303;-69
2022/08/03 02:53:44;;;;;;;7.20;2.60;;;22.60;99.90;;;;;;5005298;28;20214;-71
2022/08/03 02:56:11;;;;;;;2.95;2.60;;;22.60;99.90;;;;;;5003827;28;20173;-71
2022/08/03 02:58:39;;;;;;;4.18;2.90;;;22.60;99.90;;;;;;5002469;28;20315;-70
2022/08/03 03:01:05;;;;;;;6.25;3.03;;;22.60;99.90;;;;;;5009706;28;20289;-70
2022/08/03 03:03:32;;;;;;;4.53;3.25;;;22.50;99.90;;;;;;5004061;28;20271;-69
2022/08/03 03:05:58;;;;;;;5.90;3.25;;;22.60;99.90;;;;;;5007255;28;20335;-69
2022/08/03 03:08:25;;;;;;;3.38;3.00;;;22.50;99.90;;;;;;4988807;28;20705;-69
2022/08/03 03:10:52;;;;;;;4.55;2.90;;;22.60;99.90;;;;;;5005156;28;20731;-70
2022/08/03 03:13:19;;;;;;;5.35;3.17;;;22.50;99.90;;;;;;5006989;28;20726;-70
2022/08/03 03:15:46;;;;;;;4.13;3.00;;;22.50;99.90;;;;;;5007251;28;20292;-69
2022/08/03 03:18:12;;;;;;;3.88;2.50;;;22.60;99.90;;;;;;5007281;28;20236;-69
2022/08/03 03:20:39;;;;;;;4.38;3.00;;;22.50;99.90;;;;;;5002474;28;20276;-70
2022/08/03 03:23:07;;;;;;;4.63;3.28;;;22.50;99.90;;;;;;5004812;28;20165;-69
2022/08/03 03:25:34;;;;;;;4.90;3.03;;;22.60;99.90;;;;;;5000827;28;20197;-70
2022/08/03 03:28:00;;;;;;;5.20;3.15;;;22.60;99.90;;;;;;4987052;28;20202;-68
2022/08/03 03:30:27;;;;;;;3.25;2.72;;;22.50;99.90;;;;;;5004895;28;20283;-69
2022/08/03 03:32:53;;;;;;;3.85;3.47;;;22.50;99.90;;;;;;5007860;28;20201;-69
2022/08/03 03:35:19;;;;;;;6.82;2.97;;;22.40;99.90;;;;;;5010420;28;20259;-69
2022/08/03 03:37:45;;;;;;;4.47;2.88;;;22.40;99.90;;;;;;5002335;28;20170;-70
2022/08/03 03:40:11;;;;;;;5.78;3.90;;;22.50;99.90;;;;;;4989476;28;20193;-70
2022/08/03 03:42:37;;;;;;;4.40;3.20;;;22.40;99.90;;;;;;5007934;28;20609;-69
2022/08/03 03:45:07;;;;;;;7.57;3.35;;;22.40;99.90;;;;;;5003987;28;20197;-70
2022/08/03 03:47:36;;;;;;;4.68;3.40;;;22.40;99.90;;;;;;5003685;28;20260;-69
2022/08/03 03:50:04;;;;;;;5.20;3.65;;;22.40;99.90;;;;;;5005160;28;20165;-69
2022/08/03 03:52:31;;;;;;;6.15;2.97;;;22.40;99.90;;;;;;4999946;28;20209;-70
2022/08/03 03:54:56;;;;;;;6.75;3.30;;;22.40;99.90;;;;;;5003065;28;20205;-69
2022/08/03 03:57:22;;;;;;;5.90;3.35;;;22.50;99.90;;;;;;4989243;28;20212;-70
2022/08/03 03:59:48;;;;;;;3.92;3.10;;;22.50;99.90;;;;;;5010663;28;20239;-70
2022/08/03 04:02:14;;;;;;;4.18;3.10;;;22.70;99.90;;;;;;5003829;28;20274;-69
2022/08/03 04:13:02;;;;;;;4.88;3.22;;;25.90;99.90;;;;;;5006076;28;20211;-69
2022/08/03 04:15:32;;;;;;;4.13;3.05;;;26.60;99.90;;;;;;4986361;28;20232;-70
2022/08/03 04:17:58;;;;;;;3.55;3.08;;;27.50;99.80;;;;;;5005960;28;20232;-70
2022/08/03 04:20:29;;;;;;;5.03;3.03;;;28.60;97.90;;;;;;5003357;28;20173;-71
2022/08/03 04:22:58;;;;;;;4.82;3.20;;;29.40;96.10;;;;;;5006021;28;20296;-71
2022/08/03 04:25:27;;;;;;;3.13;2.83;;;29.70;95.30;;;;;;4990587;28;20192;-70
2022/08/03 04:27:54;;;;;;;4.32;3.30;;;30.00;94.10;;;;;;5003266;28;20197;-70
2022/08/03 04:30:21;;;;;;;4.45;3.08;;;30.30;93.10;;;;;;5005144;28;20217;-70
2022/08/03 04:32:50;;;;;;;4.45;2.90;;;30.60;92.50;;;;;;5006234;28;20198;-70
2022/08/03 04:35:17;;;;;;;3.85;3.25;;;29.80;92.30;;;;;;5009656;28;20658;-71
2022/08/03 04:37:50;;;;;;;6.70;3.00;;;28.20;93.40;;;;;;5000784;28;20209;-70
2022/08/03 04:40:31;;;;;;;5.45;3.10;;;27.10;94.60;;;;;;5006367;28;20201;-70
2022/08/03 04:42:58;;;;;;;4.25;3.10;;;26.40;96.00;;;;;;5007644;28;20288;-70
2022/08/03 04:45:26;;;;;;;5.25;2.88;;;27.20;96.40;;;;;;5002460;28;20197;-69
2022/08/03 04:47:53;;;;;;;5.20;3.20;;;28.90;94.80;;;;;;5003655;28;20198;-70
2022/08/03 04:50:19;;;;;;;5.15;3.10;;;30.60;92.80;;;;;;5007595;28;20173;-71
2022/08/03 04:52:45;;;;;;;4.82;2.67;;;32.10;90.60;;;;;;5005793;28;20543;-71
2022/08/03 04:55:11;;;;;;;5.20;2.70;;;32.50;88.00;;;;;;5004292;28;20209;-71
2022/08/03 04:57:36;;;;;;;3.35;3.05;;;32.40;86.00;;;;;;4996052;28;20677;-70
2022/08/03 05:00:04;;;;;;;6.38;3.22;;;32.80;85.70;;;;;;5011015;28;20201;-71
2022/08/03 05:02:30;;;;;;;3.40;2.53;;;32.80;84.00;;;;;;5009807;28;20696;-70
2022/08/03 05:04:56;;;;;;;5.20;3.10;;;32.60;83.50;;;;;;4994266;28;20242;-71
2022/08/03 05:07:22;;;;;;;7.38;3.00;;;33.60;82.70;;;;;;5013737;28;20287;-70
2022/08/03 05:09:47;;;;;;;5.35;2.92;;;34.10;81.20;;;;;;5013474;28;20201;-71
2022/08/03 05:12:13;;;;;;;5.20;3.38;;;33.60;80.20;;;;;;5013676;28;20324;-70
2022/08/03 05:14:39;;;;;;;4.50;2.90;;;34.80;79.00;;;;;;5013613;28;20227;-70
2022/08/03 05:17:05;;;;;;;4.28;2.85;;;34.30;78.10;;;;;;4996321;28;20173;-70
2022/08/03 05:19:31;;;;;;;6.25;2.60;;;34.00;77.20;;;;;;5013341;28;20242;-70
2022/08/03 05:21:57;;;;;;;5.05;2.95;;;34.00;76.50;;;;;;5013633;28;20205;-70
2022/08/03 05:24:23;;;;;;;4.53;2.83;;;34.40;76.30;;;;;;5013407;28;20262;-70
2022/08/03 05:26:48;;;;;;;4.43;2.90;;;35.00;75.50;;;;;;5013090;28;20274;-70
2022/08/03 05:29:14;;;;;;;4.82;3.10;;;35.60;74.70;;;;;;5013356;28;20539;-70
2022/08/03 05:31:39;;;;;;;3.45;2.75;;;35.80;73.30;;;;;;5013045;28;20219;-69
2022/08/03 05:34:05;;;;;;;4.82;2.60;;;36.50;72.70;;;;;;4995839;28;20208;-71
2022/08/03 05:36:31;;;;;;;4.38;2.90;;;36.90;71.60;;;;;;5013138;28;20204;-71
2022/08/03 05:38:57;;;;;;;3.38;3.00;;;36.50;70.40;;;;;;4995524;28;20284;-71
2022/08/03 05:41:22;;;;;;;6.95;3.00;;;36.50;70.50;;;;;;5013110;28;20189;-71
2022/08/03 05:43:48;;;;;;;3.65;2.83;;;36.40;70.10;;;;;;5013526;28;20192;-71
2022/08/03 05:46:14;;;;;;;5.47;3.17;;;36.40;69.40;;;;;;4995721;28;20230;-71
2022/08/03 05:48:41;;;;;;;7.53;2.70;;;36.20;69.90;;;;;;5012855;28;20214;-71
2022/08/03 05:53:34;;;;;;;6.85;3.15;;;36.40;69.60;;;;;;4988322;28;20217;-73
2022/08/03 05:56:00;;;;;;;3.67;2.60;;;35.40;70.00;;;;;;4989882;28;20200;-74
2022/08/03 05:58:26;;;;;;;5.20;2.97;;;36.00;70.90;;;;;;4989970;28;20205;-74
2022/08/03 06:00:52;;;;;;;5.50;2.85;;;36.50;69.80;;;;;;4988974;28;20219;-73
2022/08/03 06:03:18;;;;;;;5.18;3.25;;;36.20;69.10;;;;;;4975682;28;20207;-74
2022/08/03 06:05:44;;;;;;;10.32;3.03;;;36.20;69.20;;;;;;4992998;28;20688;-74
2022/08/03 06:08:09;;;;;;;5.15;2.63;;;36.80;67.70;;;;;;4993758;28;20181;-74
2022/08/03 06:10:35;;;;;;;3.47;3.15;;;36.70;67.30;;;;;;4994203;28;20623;-74
2022/08/03 06:13:01;;;;;;;7.72;3.30;;;36.80;67.60;;;;;;4993059;28;20204;-72
2022/08/03 06:15:26;;;;;;;4.25;2.75;;;37.60;67.10;;;;;;4972594;28;20209;-74
2022/08/03 06:17:52;;;;;;;3.65;2.20;;;38.00;65.60;;;;;;4975603;28;20261;-74
2022/08/03 06:20:19;;;;;;;3.03;2.25;;;38.00;64.00;;;;;;4994411;28;20180;-73
2022/08/03 06:22:46;;;;;;;5.85;2.50;;;37.90;63.90;;;;;;4984914;28;20204;-74
2022/08/03 06:25:11;;;;;;;3.03;2.05;;;37.90;64.90;;;;;;4993896;28;20201;-73
2022/08/03 06:27:38;;;;;;;5.60;2.83;;;38.40;63.80;;;;;;4993608;28;20247;-74
2022/08/03 06:30:07;;;;;;;4.07;2.40;;;39.00;62.40;;;;;;4974710;28;20197;-74
2022/08/03 06:32:33;;;;;;;5.60;2.47;;;39.30;62.10;;;;;;4990407;28;20677;-73
2022/08/03 06:34:59;;;;;;;3.33;2.25;;;39.30;61.40;;;;;;4992985;28;20189;-74
2022/08/03 06:37:25;;;;;;;3.70;2.30;;;39.90;61.10;;;;;;4975261;28;20220;-74
2022/08/03 06:39:51;;;;;;;3.75;2.30;;;40.20;60.20;;;;;;4992478;28;20259;-74
2022/08/03 06:42:17;;;;;;;2.95;2.25;;;40.10;59.80;;;;;;4992693;28;20209;-73
2022/08/03 06:44:42;;;;;;;3.00;2.72;;;40.20;59.60;;;;;;4974957;28;20221;-74
2022/08/03 06:47:08;;;;;;;3.47;2.53;;;40.70;58.80;;;;;;4993135;28;20185;-74
2022/08/03 06:49:34;;;;;;;3.22;2.80;;;40.10;58.80;;;;;;4983598;28;20209;-74
2022/08/03 06:51:59;;;;;;;2.70;2.50;;;40.00;58.10;;;;;;4992465;28;20220;-75
2022/08/03 06:54:25;;;;;;;4.78;2.70;;;39.50;58.30;;;;;;4992039;28;20209;-74
2022/08/03 06:56:51;;;;;;;3.58;2.67;;;39.40;58.20;;;;;;4992548;28;20205;-74
2022/08/03 06:59:17;;;;;;;6.57;2.70;;;39.70;58.20;;;;;;4992233;28;20172;-74
2022/08/03 07:01:42;;;;;;;5.47;2.20;;;40.10;58.10;;;;;;4983741;28;20276;-74
2022/08/03 07:04:08;;;;;;;4.85;2.70;;;38.90;58.50;;;;;;4992373;28;20723;-74
2022/08/03 07:06:33;;;;;;;4.82;2.40;;;39.30;58.60;;;;;;4992703;28;20566;-74
2022/08/03 07:08:59;;;;;;;3.60;2.35;;;38.10;59.00;;;;;;4992181;28;20702;-74
2022/08/03 07:11:25;;;;;;;4.85;2.40;;;37.90;59.50;;;;;;4991741;28;20546;-74
2022/08/03 07:13:50;;;;;;;4.70;2.00;;;38.00;60.10;;;;;;4992410;28;20225;-74
2022/08/03 07:16:16;;;;;;;2.20;1.92;;;38.30;59.50;;;;;;4992377;28;20632;-74
2022/08/03 07:18:41;;;;;;;3.47;2.28;;;38.30;59.40;;;;;;4991509;28;20204;-74
2022/08/03 07:21:09;;;;;;;3.80;2.72;;;38.50;59.90;;;;;;4992999;28;20209;-75
2022/08/03 07:23:35;;;;;;;6.57;2.53;;;38.10;59.50;;;;;;4990487;28;20212;-75
2022/08/03 07:26:01;;;;;;;2.45;1.92;;;38.30;59.50;;;;;;4975184;28;20177;-74
2022/08/03 07:28:26;;;;;;;5.18;2.20;;;38.50;59.50;;;;;;4990681;28;20197;-74
2022/08/03 07:30:52;;;;;;;3.60;2.42;;;38.90;58.80;;;;;;4991201;28;20201;-75
2022/08/03 07:33:18;;;;;;;4.70;2.35;;;39.50;59.30;;;;;;4991646;28;20219;-75
2022/08/03 07:35:43;;;;;;;5.07;2.58;;;39.90;58.60;;;;;;4991337;28;20231;-74
2022/08/03 07:38:09;;;;;;;2.80;2.10;;;40.80;58.20;;;;;;4991696;28;20605;-74
2022/08/03 07:40:34;;;;;;;5.28;2.25;;;41.10;57.20;;;;;;4982715;28;20275;-74
2022/08/03 07:43:02;;;;;;;2.85;2.63;;;41.60;57.30;;;;;;4991240;28;20233;-74
2022/08/03 07:45:29;;;;;;;4.70;2.22;;;42.00;57.00;;;;;;4991321;28;20201;-75
2022/08/03 07:47:54;;;;;;;4.53;2.80;;;41.90;55.50;;;;;;4991185;28;20686;-73
2022/08/03 07:50:20;;;;;;;3.33;2.67;;;41.30;56.40;;;;;;4991372;28;20196;-74
2022/08/03 07:52:50;;;;;;;4.03;2.30;;;40.60;56.10;;;;;;4975116;28;20236;-74
2022/08/03 07:55:20;;;;;;;2.75;2.30;;;41.20;56.00;;;;;;4987938;28;20229;-74
2022/08/03 07:57:47;;;;;;;6.82;2.85;;;41.50;55.40;;;;;;4991132;28;20201;-75
2022/08/03 08:00:18;;;;;;;4.07;2.95;;;41.50;56.30;;;;;;4990911;28;20205;-75
2022/08/03 08:02:45;;;;;;;8.93;3.13;;;41.80;55.80;;;;;;4991124;28;20212;-74
2022/08/03 08:05:11;;;;;;;3.15;2.85;;;41.90;55.80;;;;;;4991477;28;20173;-75
2022/08/03 08:07:37;;;;;;;3.67;3.00;;;42.20;55.20;;;;;;4990889;28;20580;-74
2022/08/03 08:10:05;;;;;;;3.33;2.67;;;42.10;54.80;;;;;;4990811;28;20197;-75
2022/08/03 08:12:31;;;;;;;3.70;3.20;;;41.10;54.60;;;;;;4972897;28;20213;-75
2022/08/03 08:14:56;;;;;;;7.40;2.85;;;40.80;55.00;;;;;;4990816;28;20205;-74
2022/08/03 08:17:22;;;;;;;4.25;2.67;;;39.90;55.90;;;;;;4991239;28;20181;-74
2022/08/03 08:19:47;;;;;;;3.08;1.92;;;39.70;55.70;;;;;;4991611;28;20172;-74
2022/08/03 08:22:13;;;;;;;2.90;2.10;;;39.60;56.30;;;;;;4973873;28;20705;-75
2022/08/03 08:24:39;;;;;;;4.10;1.90;;;38.90;56.20;;;;;;4974062;28;20224;-73
2022/08/03 08:27:04;;;;;;;3.65;2.30;;;37.90;56.80;;;;;;4991592;28;20203;-73
2022/08/03 08:29:30;;;;;;;3.25;2.08;;;37.50;57.90;;;;;;4990707;28;20272;-73
2022/08/03 08:31:55;;;;;;;4.50;2.17;;;37.90;57.90;;;;;;4991838;28;20324;-72
2022/08/03 08:34:21;;;;;;;5.15;1.88;;;37.10;57.50;;;;;;4991061;28;20241;-72
2022/08/03 08:36:47;;;;;;;4.00;2.10;;;37.90;58.10;;;;;;4987758;28;20196;-73
2022/08/03 08:39:12;;;;;;;14.95;3.65;;;39.20;57.10;;;;;;4993076;28;20216;-74
2022/08/03 08:41:38;;;;;;;4.43;2.00;;;39.90;56.30;;;;;;4977959;28;20212;-74
2022/08/03 08:44:06;;;;;;;2.63;1.65;;;38.50;56.10;;;;;;4995964;28;20622;-73
2022/08/03 08:46:32;;;;;;;4.05;1.85;;;38.10;57.00;;;;;;4994899;28;20570;-74
2022/08/03 08:48:59;;;;;;;2.13;1.90;;;38.90;56.40;;;;;;4994825;28;20223;-74
2022/08/03 08:51:32;;;;;;;1.75;1.50;;;38.90;56.30;;;;;;4974430;28;20209;-75
2022/08/03 08:54:01;;;;;;;2.38;2.17;;;39.60;56.70;;;;;;4995106;28;20569;-75
2022/08/03 08:56:28;;;;;;;2.75;1.83;;;40.20;55.30;;;;;;4995882;28;20627;-74
2022/08/03 08:59:00;;;;;;;3.67;1.75;;;39.70;55.10;;;;;;4977749;28;20169;-75
2022/08/03 09:01:27;;;;;;;1.60;1.50;;;39.30;54.90;;;;;;4992168;28;20231;-75
2022/08/03 09:03:53;;;;;;;3.40;1.65;;;38.50;55.80;;;;;;4994384;28;20544;-74
2022/08/03 09:06:20;;;;;;;2.42;1.60;;;38.10;55.80;;;;;;4977110;28;20209;-75
2022/08/03 09:08:46;;;;;;;2.17;1.80;;;38.30;56.20;;;;;;4994331;28;20223;-74
2022/08/03 09:11:11;;;;;;;18.42;4.28;;;39.00;56.80;;;;;;4977186;28;20177;-74
2022/08/03 09:13:37;;;;;;;8.63;3.05;;;39.60;56.40;;;;;;4994003;28;20208;-75
2022/08/03 09:16:20;;;;;;;2.67;1.98;;;39.80;55.20;;;;;;4994313;28;20197;-74
2022/08/03 09:18:49;;;;;;;6.47;1.92;;;39.10;55.70;;;;;;4993719;28;20724;-74
2022/08/03 09:21:18;;;;;;;2.17;1.67;;;39.40;56.70;;;;;;4990591;28;20577;-75
2022/08/03 09:23:47;;;;;;;4.50;1.80;;;38.40;56.20;;;;;;4994012;28;20193;-74
2022/08/03 09:26:19;;;;;;;2.22;1.92;;;37.30;57.80;;;;;;4994533;28;20161;-74
2022/08/03 09:28:45;;;;;;;2.95;1.95;;;36.30;58.60;;;;;;4993899;28;20198;-74
2022/08/03 09:31:11;;;;;;;5.88;1.95;;;36.20;59.20;;;;;;4993996;28;20267;-75
2022/08/03 09:33:47;;;;;;;14.70;3.45;;;37.00;59.00;;;;;;4985119;28;20205;-74
2022/08/03 09:36:45;;;;;;;3.58;1.92;;;36.60;58.80;;;;;;4993614;28;20259;-74
2022/08/03 09:39:15;;;;;;;4.32;2.33;;;36.00;60.70;;;;;;4984639;28;20283;-74
2022/08/03 09:41:44;;;;;;;4.57;1.92;;;35.80;60.50;;;;;;4993626;28;20220;-74
2022/08/03 09:44:09;;;;;;;6.50;2.05;;;35.90;61.00;;;;;;4994283;28;20288;-74
2022/08/03 09:46:51;;;;;;;5.35;2.22;;;36.50;60.50;;;;;;4993442;28;20734;-74
2022/08/03 09:49:17;;;;;;;3.17;2.15;;;35.60;60.30;;;;;;4991357;28;20280;-74
2022/08/03 09:51:44;;;;;;;2.80;1.85;;;34.60;61.80;;;;;;4992839;28;20623;-75
2022/08/03 09:54:09;;;;;;;1.95;1.70;;;34.70;63.00;;;;;;4993216;28;20209;-74
2022/08/03 09:56:43;;;;;;;2.20;1.70;;;35.00;62.20;;;;;;4975998;28;20221;-74
2022/08/03 09:59:22;;;;;;;4.35;2.05;;;35.90;62.20;;;;;;4993445;28;20662;-74
2022/08/03 10:01:48;;;;;;;7.47;2.38;;;36.20;61.60;;;;;;4993985;28;20205;-75
2022/08/03 10:04:15;;;;;;;3.40;1.40;;;36.40;61.10;;;;;;4975944;28;20213;-75
2022/08/03 10:06:59;;;;;;;3.42;1.50;;;36.30;60.30;;;;;;4993084;28;20220;-74
2022/08/03 10:09:25;;;;;;;4.20;1.73;;;36.30;61.00;;;;;;4990055;28;20202;-75
2022/08/03 10:11:51;;;;;;;9.05;2.67;;;36.10;61.40;;;;;;4975872;28;20208;-75
2022/08/03 10:14:21;;;;;;;7.97;2.20;;;36.00;61.60;;;;;;4975828;28;20205;-73
2022/08/03 10:16:47;;;;;;;5.75;2.60;;;36.40;61.60;;;;;;4982512;28;20224;-74
2022/08/03 10:19:14;;;;;;;2.75;1.60;;;36.30;62.80;;;;;;4975513;28;20284;-74
2022/08/03 10:21:45;;;;;;;2.00;1.80;;;35.50;60.60;;;;;;4992083;28;20212;-74
2022/08/03 10:24:12;;;;;;;5.47;2.15;;;35.30;62.30;;;;;;4992928;28;20245;-74
2022/08/03 10:26:40;;;;;;;4.07;2.63;;;35.80;62.80;;;;;;4992462;28;20248;-74
2022/08/03 10:29:13;;;;;;;4.93;1.65;;;35.60;61.60;;;;;;4975229;28;20264;-75
2022/08/03 10:31:43;;;;;;;2.60;1.73;;;35.00;62.70;;;;;;4991669;28;20217;-74
2022/08/03 10:34:21;;;;;;;2.17;1.52;;;35.50;62.80;;;;;;4992670;28;20216;-74
2022/08/03 10:36:48;;;;;;;6.32;2.05;;;34.30;63.70;;;;;;4978932;28;20284;-74
2022/08/03 10:39:20;;;;;;;48.30;8.23;;;35.00;64.30;;;;;;4992857;28;20667;-75
2022/08/03 10:41:47;;;;;;;7.50;2.20;;;35.50;64.00;;;;;;4991003;28;20201;-74
2022/08/03 10:44:17;;;;;;;2.63;1.77;;;35.30;63.00;;;;;;4975601;28;20638;-74
2022/08/03 10:46:44;;;;;;;2.97;1.95;;;35.10;62.70;;;;;;4972373;28;20360;-75
2022/08/03 10:49:14;;;;;;;2.90;2.10;;;34.50;63.60;;;;;;4992376;28;20216;-74
2022/08/03 10:51:41;;;;;;;3.72;1.77;;;34.20;64.20;;;;;;4992082;28;20221;-73
2022/08/03 10:54:36;;;;;;;2.28;1.58;;;34.30;64.70;;;;;;4992626;28;20216;-75
2022/08/03 10:59:47;;;;;;;2.55;1.90;;;35.10;64.40;;;;;;4990936;28;20685;-75
2022/08/03 11:02:14;;;;;;;3.92;1.77;;;35.30;63.00;;;;;;4992528;28;20292;-75
2022/08/03 11:04:40;;;;;;;3.13;1.90;;;34.10;63.70;;;;;;4991714;28;20209;-75
2022/08/03 11:07:23;;;;;;;4.63;2.03;;;33.70;64.90;;;;;;4992339;28;20201;-75
2022/08/03 11:09:55;;;;;;;5.13;1.92;;;33.60;65.30;;;;;;4974846;28;20206;-75
2022/08/03 11:12:28;;;;;;;6.80;2.72;;;33.90;66.00;;;;;;4991708;28;20209;-75
2022/08/03 11:14:55;;;;;;;8.20;2.70;;;34.50;66.00;;;;;;4995227;28;20216;-76
2022/08/03 11:17:21;;;;;;;1.88;1.50;;;34.90;65.00;;;;;;4991953;28;20174;-73
2022/08/03 11:19:49;;;;;;;1.90;1.75;;;35.00;63.90;;;;;;4971002;28;20181;-75
2022/08/03 11:22:17;;;;;;;11.40;2.95;;;34.80;64.30;;;;;;4991717;28;20213;-76
2022/08/03 11:24:42;;;;;;;4.97;2.40;;;34.90;65.80;;;;;;4991992;28;20790;-76
2022/08/03 11:27:14;;;;;;;7.40;6.55;;;34.70;64.70;;;;;;4991737;28;20313;-76
2022/08/03 11:30:06;;;;;;;2.22;1.63;;;35.40;65.40;;;;;;4991698;28;20210;-75
2022/08/03 11:32:42;;;;;;;1.83;1.50;;;34.80;63.80;;;;;;4991609;28;20193;-76
2022/08/03 11:35:09;;;;;;;4.35;2.08;;;34.70;64.50;;;;;;4992280;28;20316;-72
2022/08/03 11:37:35;;;;;;;2.30;1.60;;;34.90;64.40;;;;;;4983222;28;20333;-74
2022/08/03 11:40:01;;;;;;;2.42;1.50;;;34.80;63.80;;;;;;4993070;28;20204;-74
2022/08/03 11:42:27;;;;;;;3.00;1.80;;;34.50;64.80;;;;;;4992188;28;20206;-74
2022/08/03 11:44:57;;;;;;;3.17;2.20;;;34.10;65.10;;;;;;4974732;28;20201;-75
2022/08/03 11:47:25;;;;;;;1.60;1.50;;;34.00;65.70;;;;;;4992075;28;20173;-73
2022/08/03 11:49:56;;;;;;;1.98;1.80;;;33.90;65.80;;;;;;4993441;28;20637;-74
2022/08/03 11:52:22;;;;;;;2.67;2.40;;;33.80;66.10;;;;;;5008248;23;20217;-68
2022/08/03 11:54:52;;;;;;;3.75;1.80;;;33.50;66.40;;;;;;4989550;28;20267;-70
2022/08/03 11:57:31;;;;;;;5.07;1.70;;;33.40;66.90;;;;;;5006990;28;20197;-70
2022/08/03 11:59:57;;;;;;;4.15;2.13;;;33.30;66.70;;;;;;5005461;28;20201;-70
2022/08/03 12:02:22;;;;;;;4.15;2.15;;;33.40;67.60;;;;;;5007045;28;20256;-70
2022/08/03 12:05:01;;;;;;;2.50;1.70;;;33.40;67.60;;;;;;5011128;28;20300;-68
2022/08/03 12:07:28;;;;;;;4.25;1.58;;;33.20;67.10;;;;;;5010360;28;20209;-69
2022/08/03 12:10:13;;;;;;;1.75;1.65;;;33.40;67.10;;;;;;4992667;28;20246;-70
2022/08/03 12:12:41;;;;;;;3.83;1.92;;;33.70;67.60;;;;;;4991879;28;20236;-70
2022/08/03 12:15:07;;;;;;;4.22;2.05;;;33.80;66.80;;;;;;5009963;28;20209;-69
2022/08/03 12:17:33;;;;;;;2.97;1.85;;;33.50;67.00;;;;;;5009913;28;20180;-70
2022/08/03 12:19:59;;;;;;;2.72;1.52;;;33.60;67.30;;;;;;5011020;28;20634;-70
2022/08/03 12:22:36;;;;;;;2.55;1.70;;;33.90;67.70;;;;;;4992543;28;20638;-69
2022/08/03 12:25:07;;;;;;;2.10;1.50;;;33.70;66.40;;;;;;5007233;28;20685;-70
2022/08/03 12:27:34;;;;;;;2.10;1.70;;;33.30;67.10;;;;;;5003992;28;20251;-70
2022/08/03 12:30:00;;;;;;;3.50;2.47;;;33.20;67.60;;;;;;5009925;28;20324;-70
2022/08/03 12:32:28;;;;;;;2.10;1.90;;;33.30;68.00;;;;;;5010234;28;20576;-70
2022/08/03 12:34:59;;;;;;;4.72;2.00;;;33.00;67.70;;;;;;5010862;28;20262;-70
2022/08/03 12:37:25;;;;;;;4.25;2.08;;;32.90;68.60;;;;;;5010101;28;20197;-70
2022/08/03 12:39:52;;;;;;;2.72;2.15;;;33.20;68.80;;;;;;4992461;28;20697;-70
2022/08/03 12:42:18;;;;;;;4.10;2.75;;;33.20;68.40;;;;;;5009988;28;20197;-71
2022/08/03 12:44:45;;;;;;;3.50;2.10;;;33.20;68.40;;;;;;4992443;28;20220;-70
2022/08/03 12:47:11;;;;;;;2.47;1.70;;;33.20;68.60;;;;;;4993516;28;20180;-70
2022/08/03 12:49:53;;;;;;;3.15;1.85;;;33.30;68.90;;;;;;5010109;28;20904;-70
2022/08/03 12:52:20;;;;;;;3.88;1.60;;;33.50;68.00;;;;;;5010226;28;20204;-71
2022/08/03 12:54:57;;;;;;;3.90;2.35;;;33.40;68.00;;;;;;5006340;28;20208;-70
2022/08/03 12:57:22;;;;;;;4.20;2.30;;;33.70;68.00;;;;;;5009950;28;20204;-70
2022/08/03 12:59:48;;;;;;;2.35;1.63;;;33.90;69.10;;;;;;5009774;28;20201;-69
2022/08/03 13:02:25;;;;;;;2.97;1.70;;;33.70;67.10;;;;;;5012654;28;20618;-70
2022/08/03 13:04:53;;;;;;;3.63;2.10;;;33.60;67.40;;;;;;5008371;28;20239;-69